Darstellungsparameter: Aktuell verwendete Einstellungen:
Skalierung der Graphiken ... ?
xyx+y,   Skalierungsfaktor:      Skalierung: Modus: x, Faktor: 1
Darstellungszeitraum ... ?
Vom - - bis: - -   Zeitraum: 26.08.2020 - 27.08.2020
Min/Max/Avg-Anzeige ... ?
Zeige MMA aktuell
Zeige MMA Monat
Zeige MMA alles
Zeige --A aktuell
Zeige --A Monat
Zeige --A alles
Keine MMA-Anzeige
MMA:
Minimum Maximum Average (ber die Originaldaten)
MMA-Basis: 14.04.2020 - 16.05.2020
Quicknavigation für Darstellung... ?
Tage:      1T, 2T, 3T, 5T -1T -2T -3T -5T +1T +2T +3T +5T
Wochen: 1W, 2W, 3W -1W -2W -3W +1W +2W +3W
Monate: 1M, 3M, 6M -1M -3M -6M +1M +3M +6M
Jahre:    1J, 3J, 5J, 10J -1J -3J -5J -10J +1J +3J +5J +10J
Nutze für die Darstellung ... ?
Originaldaten oder Mittelwerte auf ...
Stundenbasis Tagesbasis Wochenbasis
Monatsbasis Jahresbasis      Datenbasis: Original-Daten
Darstellen als:
Statistik (Auto) Statistik J:M      Darstellung:
Zur Graphik,    zurück zur Übersicht aller Sensoren.
 
Tabellarische Datenbersicht: ?
 
Sensor: Nr:Datum:Temp:Abs-Feuchte:Windchill:Wind:
Aussen-T/F 1 26-08-2020 00:00:00 20.6 C 10.74 g/m*3 20.6 C 0 km/h
2 26-08-2020 00:05:00 20.6 C 10.56 g/m*3 20.6 C 12.9 km/h
3 26-08-2020 00:10:00 20.6 C 10.74 g/m*3 20.6 C 1.6 km/h
4 26-08-2020 00:15:00 20.7 C 10.62 g/m*3 20.7 C 8.1 km/h
5 26-08-2020 00:20:00 21.1 C 10.87 g/m*3 21.1 C 6.4 km/h
6 26-08-2020 00:25:00 21.2 C 10.93 g/m*3 21.2 C 8.1 km/h
7 26-08-2020 00:30:00 21.3 C 11.18 g/m*3 21.3 C 6.4 km/h
8 26-08-2020 00:35:00 21.3 C 11 g/m*3 21.3 C 4.8 km/h
9 26-08-2020 00:40:00 21.3 C 11.37 g/m*3 21.3 C 6.4 km/h
10 26-08-2020 00:45:00 21.3 C 11.18 g/m*3 21.3 C 3.2 km/h
11 26-08-2020 00:50:00 21.2 C 11.3 g/m*3 21.2 C 4.8 km/h
12 26-08-2020 00:55:00 21.2 C 11.68 g/m*3 21.2 C 3.2 km/h
13 26-08-2020 01:00:00 21.1 C 11.61 g/m*3 21.1 C 4.8 km/h
14 26-08-2020 01:05:00 21 C 11.54 g/m*3 21 C 3.2 km/h
15 26-08-2020 01:10:00 21 C 11.54 g/m*3 21 C 6.4 km/h
16 26-08-2020 01:15:00 21.1 C 11.61 g/m*3 21.1 C 11.3 km/h
17 26-08-2020 01:20:00 21.2 C 11.68 g/m*3 21.2 C 3.2 km/h
18 26-08-2020 01:25:00 21.3 C 11.74 g/m*3 21.3 C 3.2 km/h
19 26-08-2020 01:30:00 21.3 C 11.93 g/m*3 21.3 C 3.2 km/h
20 26-08-2020 01:35:00 21.2 C 11.86 g/m*3 21.2 C 11.3 km/h
21 26-08-2020 01:40:00 21.4 C 12.19 g/m*3 21.4 C 12.9 km/h
22 26-08-2020 01:45:00 21.8 C 12.28 g/m*3 21.8 C 14.5 km/h
23 26-08-2020 01:50:00 22.2 C 12.57 g/m*3 22.2 C 16.1 km/h
24 26-08-2020 01:55:00 22.3 C 12.44 g/m*3 22.3 C 8.1 km/h
25 26-08-2020 02:00:00 22.4 C 12.51 g/m*3 22.4 C 11.3 km/h
Sensor: Nr:Datum:Temp:Abs-Feuchte:Windchill:Wind:
Aussen-T/F 26 26-08-2020 02:05:00 22.5 C 12.58 g/m*3 22.5 C 9.7 km/h
27 26-08-2020 02:10:00 22.5 C 12.58 g/m*3 22.5 C 19.3 km/h
28 26-08-2020 02:15:00 22.6 C 12.66 g/m*3 22.6 C 19.3 km/h
29 26-08-2020 02:20:00 22.5 C 12.58 g/m*3 22.5 C 8.1 km/h
30 26-08-2020 02:25:00 22.5 C 12.58 g/m*3 22.5 C 12.9 km/h
31 26-08-2020 02:30:00 22.6 C 12.66 g/m*3 22.6 C 11.3 km/h
32 26-08-2020 02:35:00 22.6 C 12.46 g/m*3 22.6 C 14.5 km/h
33 26-08-2020 02:40:00 22.4 C 12.31 g/m*3 22.4 C 9.7 km/h
34 26-08-2020 02:45:00 22.4 C 12.51 g/m*3 22.4 C 27.4 km/h
35 26-08-2020 02:50:00 22.4 C 12.51 g/m*3 22.4 C 29 km/h
36 26-08-2020 02:55:00 22.5 C 12.58 g/m*3 22.5 C 29 km/h
37 26-08-2020 03:00:00 22.4 C 12.51 g/m*3 22.4 C 25.7 km/h
38 26-08-2020 03:05:00 22.3 C 12.44 g/m*3 22.3 C 22.5 km/h
39 26-08-2020 03:10:00 22.3 C 12.44 g/m*3 22.3 C 25.7 km/h
40 26-08-2020 03:15:00 22.2 C 12.37 g/m*3 22.2 C 27.4 km/h
41 26-08-2020 03:20:00 22.1 C 12.49 g/m*3 22.1 C 27.4 km/h
42 26-08-2020 03:25:00 21.9 C 12.35 g/m*3 21.9 C 17.7 km/h
43 26-08-2020 03:30:00 21.8 C 12.28 g/m*3 21.8 C 20.9 km/h
44 26-08-2020 03:35:00 21.7 C 12.21 g/m*3 21.7 C 24.1 km/h
45 26-08-2020 03:40:00 21.6 C 11.76 g/m*3 21.6 C 35.4 km/h
46 26-08-2020 03:45:00 21.5 C 11.69 g/m*3 21.5 C 20.9 km/h
47 26-08-2020 03:50:00 21.3 C 11.74 g/m*3 21.3 C 17.7 km/h
48 26-08-2020 03:55:00 21.2 C 11.86 g/m*3 21.2 C 14.5 km/h
49 26-08-2020 04:00:00 21 C 11.72 g/m*3 21 C 19.3 km/h
50 26-08-2020 04:05:00 20.9 C 11.47 g/m*3 20.9 C 20.9 km/h
Sensor: Nr:Datum:Temp:Abs-Feuchte:Windchill:Wind:
Aussen-T/F 51 26-08-2020 04:10:00 20.8 C 11.41 g/m*3 20.8 C 19.3 km/h
52 26-08-2020 04:15:00 20.7 C 11.34 g/m*3 20.7 C 25.7 km/h
53 26-08-2020 04:20:00 20.7 C 11.16 g/m*3 20.7 C 20.9 km/h
54 26-08-2020 04:25:00 20.6 C 11.1 g/m*3 20.6 C 25.7 km/h
55 26-08-2020 04:30:00 20.5 C 11.03 g/m*3 20.5 C 16.1 km/h
56 26-08-2020 04:35:00 20.4 C 11.14 g/m*3 20.4 C 16.1 km/h
57 26-08-2020 04:40:00 20.3 C 10.73 g/m*3 20.3 C 25.7 km/h
58 26-08-2020 04:45:00 20.4 C 10.61 g/m*3 20.4 C 24.1 km/h
59 26-08-2020 04:50:00 20.4 C 10.44 g/m*3 20.4 C 20.9 km/h
60 26-08-2020 04:55:00 20.4 C 10.26 g/m*3 20.4 C 25.7 km/h
61 26-08-2020 05:00:00 20.3 C 10.2 g/m*3 20.3 C 25.7 km/h
62 26-08-2020 05:05:00 20.3 C 10.38 g/m*3 20.3 C 12.9 km/h
63 26-08-2020 05:10:00 20.2 C 10.32 g/m*3 20.2 C 16.1 km/h
64 26-08-2020 05:15:00 20.2 C 10.32 g/m*3 20.2 C 19.3 km/h
65 26-08-2020 05:20:00 20.2 C 10.32 g/m*3 20.2 C 22.5 km/h
66 26-08-2020 05:25:00 20.1 C 10.08 g/m*3 20.1 C 24.1 km/h
67 26-08-2020 05:30:00 20.1 C 10.08 g/m*3 20.1 C 20.9 km/h
68 26-08-2020 05:35:00 20.1 C 10.26 g/m*3 20.1 C 20.9 km/h
69 26-08-2020 05:40:00 19.9 C 9.79 g/m*3 19.9 C 27.4 km/h
70 26-08-2020 05:45:00 19.9 C 9.79 g/m*3 19.9 C 37 km/h
71 26-08-2020 05:50:00 19.8 C 9.74 g/m*3 19.8 C 22.5 km/h
72 26-08-2020 05:55:00 19.8 C 9.91 g/m*3 19.8 C 20.9 km/h
73 26-08-2020 06:00:00 19.8 C 9.74 g/m*3 19.8 C 25.7 km/h
74 26-08-2020 06:05:00 19.7 C 9.85 g/m*3 19.7 C 19.3 km/h
75 26-08-2020 06:10:00 19.7 C 9.68 g/m*3 19.7 C 25.7 km/h
Sensor: Nr:Datum:Temp:Abs-Feuchte:Windchill:Wind:
Aussen-T/F 76 26-08-2020 06:15:00 19.7 C 9.68 g/m*3 19.7 C 24.1 km/h
77 26-08-2020 06:20:00 19.7 C 9.51 g/m*3 19.7 C 35.4 km/h
78 26-08-2020 06:25:00 19.7 C 9.68 g/m*3 19.7 C 25.7 km/h
79 26-08-2020 06:30:00 19.6 C 9.62 g/m*3 19.6 C 24.1 km/h
80 26-08-2020 06:35:00 19.6 C 9.79 g/m*3 19.6 C 19.3 km/h
81 26-08-2020 06:40:00 19.5 C 9.73 g/m*3 19.5 C 16.1 km/h
82 26-08-2020 06:45:00 19.4 C 9.84 g/m*3 19.4 C 16.1 km/h
83 26-08-2020 06:50:00 19.3 C 9.79 g/m*3 19.3 C 12.9 km/h
84 26-08-2020 06:55:00 19.3 C 9.95 g/m*3 19.3 C 14.5 km/h
85 26-08-2020 07:00:00 19.3 C 9.95 g/m*3 19.3 C 17.7 km/h
86 26-08-2020 07:05:00 19.2 C 9.89 g/m*3 19.2 C 19.3 km/h
87 26-08-2020 07:10:00 19.2 C 9.56 g/m*3 19.2 C 24.1 km/h
88 26-08-2020 07:15:00 19.2 C 9.56 g/m*3 19.2 C 17.7 km/h
89 26-08-2020 07:20:00 19.2 C 9.4 g/m*3 19.2 C 19.3 km/h
90 26-08-2020 07:25:00 19.2 C 9.4 g/m*3 19.2 C 27.4 km/h
91 26-08-2020 07:30:00 19.3 C 9.45 g/m*3 19.3 C 22.5 km/h
92 26-08-2020 07:35:00 19.2 C 9.56 g/m*3 19.2 C 20.9 km/h
93 26-08-2020 07:40:00 19.2 C 9.56 g/m*3 19.2 C 19.3 km/h
94 26-08-2020 07:45:00 19.2 C 9.56 g/m*3 19.2 C 22.5 km/h
95 26-08-2020 07:50:00 19.3 C 9.79 g/m*3 19.3 C 14.5 km/h
96 26-08-2020 07:55:00 19.2 C 9.56 g/m*3 19.2 C 20.9 km/h
97 26-08-2020 08:00:00 19.2 C 9.73 g/m*3 19.2 C 17.7 km/h
98 26-08-2020 08:05:00 19.2 C 9.56 g/m*3 19.2 C 19.3 km/h
99 26-08-2020 08:10:00 19.3 C 9.79 g/m*3 19.3 C 20.9 km/h
100 26-08-2020 08:15:00 19.2 C 9.73 g/m*3 19.2 C 19.3 km/h
Sensor: Nr:Datum:Temp:Abs-Feuchte:Windchill:Wind:
Aussen-T/F 101 26-08-2020 08:20:00 19.3 C 9.95 g/m*3 19.3 C 9.7 km/h
102 26-08-2020 08:25:00 19.3 C 9.79 g/m*3 19.3 C 19.3 km/h
103 26-08-2020 08:30:00 19.3 C 9.62 g/m*3 19.3 C 20.9 km/h
104 26-08-2020 08:35:00 19.3 C 9.79 g/m*3 19.3 C 16.1 km/h
105 26-08-2020 08:40:00 19.3 C 9.79 g/m*3 19.3 C 29 km/h
106 26-08-2020 08:45:00 19.4 C 9.84 g/m*3 19.4 C 20.9 km/h
107 26-08-2020 08:50:00 19.4 C 9.84 g/m*3 19.4 C 17.7 km/h
108 26-08-2020 08:55:00 19.4 C 9.84 g/m*3 19.4 C 22.5 km/h
109 26-08-2020 09:00:00 19.4 C 9.84 g/m*3 19.4 C 22.5 km/h
110 26-08-2020 09:05:00 19.4 C 10.01 g/m*3 19.4 C 14.5 km/h
111 26-08-2020 09:10:00 19.3 C 9.95 g/m*3 19.3 C 12.9 km/h
112 26-08-2020 09:15:00 19.3 C 9.95 g/m*3 19.3 C 16.1 km/h
113 26-08-2020 09:20:00 19.3 C 9.95 g/m*3 19.3 C 19.3 km/h
114 26-08-2020 09:25:00 19.4 C 10.01 g/m*3 19.4 C 22.5 km/h
115 26-08-2020 09:30:00 19.5 C 9.9 g/m*3 19.5 C 27.4 km/h
116 26-08-2020 09:35:00 19.5 C 10.07 g/m*3 19.5 C 14.5 km/h
117 26-08-2020 09:40:00 19.6 C 10.13 g/m*3 19.6 C 12.9 km/h
118 26-08-2020 09:45:00 19.5 C 10.07 g/m*3 19.5 C 19.3 km/h
119 26-08-2020 09:50:00 19.4 C 10.01 g/m*3 19.4 C 19.3 km/h
120 26-08-2020 09:55:00 19.4 C 10.01 g/m*3 19.4 C 17.7 km/h
121 26-08-2020 10:00:00 19.5 C 10.07 g/m*3 19.5 C 16.1 km/h
122 26-08-2020 10:05:00 19.5 C 10.07 g/m*3 19.5 C 19.3 km/h
123 26-08-2020 10:10:00 19.5 C 10.07 g/m*3 19.5 C 17.7 km/h
124 26-08-2020 10:15:00 19.6 C 10.13 g/m*3 19.6 C 14.5 km/h
125 26-08-2020 10:20:00 19.6 C 10.3 g/m*3 19.6 C 17.7 km/h
Sensor: Nr:Datum:Temp:Abs-Feuchte:Windchill:Wind:
Aussen-T/F 126 26-08-2020 10:25:00 19.6 C 10.13 g/m*3 19.6 C 12.9 km/h
127 26-08-2020 10:30:00 19.6 C 10.13 g/m*3 19.6 C 14.5 km/h
128 26-08-2020 10:35:00 19.6 C 10.13 g/m*3 19.6 C 17.7 km/h
129 26-08-2020 10:40:00 19.6 C 10.3 g/m*3 19.6 C 17.7 km/h
130 26-08-2020 10:45:00 19.5 C 10.07 g/m*3 19.5 C 20.9 km/h
131 26-08-2020 10:50:00 19.5 C 10.24 g/m*3 19.5 C 24.1 km/h
132 26-08-2020 10:55:00 19.5 C 10.07 g/m*3 19.5 C 20.9 km/h
133 26-08-2020 11:00:00 19.5 C 10.24 g/m*3 19.5 C 16.1 km/h
134 26-08-2020 11:05:00 19.4 C 10.01 g/m*3 19.4 C 14.5 km/h
135 26-08-2020 11:10:00 19.4 C 10.01 g/m*3 19.4 C 25.7 km/h
136 26-08-2020 11:15:00 19.5 C 10.07 g/m*3 19.5 C 17.7 km/h
137 26-08-2020 11:20:00 19.5 C 10.07 g/m*3 19.5 C 29 km/h
138 26-08-2020 11:25:00 19.6 C 10.13 g/m*3 19.6 C 19.3 km/h
139 26-08-2020 11:30:00 19.7 C 10.02 g/m*3 19.7 C 20.9 km/h
140 26-08-2020 11:35:00 19.8 C 10.08 g/m*3 19.8 C 14.5 km/h
141 26-08-2020 11:40:00 20 C 10.2 g/m*3 20 C 17.7 km/h
142 26-08-2020 11:45:00 20.1 C 10.26 g/m*3 20.1 C 20.9 km/h
143 26-08-2020 11:50:00 20.2 C 10.32 g/m*3 20.2 C 20.9 km/h
144 26-08-2020 11:55:00 20.2 C 9.97 g/m*3 20.2 C 27.4 km/h
145 26-08-2020 12:00:00 20.2 C 10.14 g/m*3 20.2 C 19.3 km/h
146 26-08-2020 12:05:00 20.2 C 10.32 g/m*3 20.2 C 22.5 km/h
147 26-08-2020 12:10:00 20.2 C 10.49 g/m*3 20.2 C 20.9 km/h
148 26-08-2020 12:15:00 20.2 C 10.49 g/m*3 20.2 C 19.3 km/h
149 26-08-2020 12:20:00 20.2 C 10.49 g/m*3 20.2 C 19.3 km/h
150 26-08-2020 12:25:00 20.1 C 10.6 g/m*3 20.1 C 30.6 km/h
Sensor: Nr:Datum:Temp:Abs-Feuchte:Windchill:Wind:
Aussen-T/F 151 26-08-2020 12:30:00 20 C 10.54 g/m*3 20 C 12.9 km/h
152 26-08-2020 12:35:00 19.9 C 10.65 g/m*3 19.9 C 14.5 km/h
153 26-08-2020 12:40:00 20.1 C 10.78 g/m*3 20.1 C 16.1 km/h
154 26-08-2020 12:45:00 20.1 C 10.78 g/m*3 20.1 C 20.9 km/h
155 26-08-2020 12:50:00 20.2 C 10.67 g/m*3 20.2 C 19.3 km/h
156 26-08-2020 12:55:00 20.2 C 10.84 g/m*3 20.2 C 20.9 km/h
157 26-08-2020 13:00:00 20.2 C 10.84 g/m*3 20.2 C 25.7 km/h
158 26-08-2020 13:05:00 20.4 C 10.97 g/m*3 20.4 C 12.9 km/h
159 26-08-2020 13:10:00 20.7 C 10.98 g/m*3 20.7 C 19.3 km/h
160 26-08-2020 13:15:00 20.8 C 10.86 g/m*3 20.8 C 20.9 km/h
161 26-08-2020 13:20:00 20.8 C 10.86 g/m*3 20.8 C 24.1 km/h
162 26-08-2020 13:25:00 20.7 C 10.8 g/m*3 20.7 C 17.7 km/h
163 26-08-2020 13:30:00 21 C 10.99 g/m*3 21 C 20.9 km/h
164 26-08-2020 13:35:00 21.3 C 11 g/m*3 21.3 C 29 km/h
165 26-08-2020 13:40:00 21.6 C 10.81 g/m*3 21.6 C 24.1 km/h
166 26-08-2020 13:45:00 21.6 C 10.62 g/m*3 21.6 C 22.5 km/h
167 26-08-2020 13:50:00 21.6 C 10.81 g/m*3 21.6 C 24.1 km/h
168 26-08-2020 13:55:00 21.6 C 10.81 g/m*3 21.6 C 20.9 km/h
169 26-08-2020 14:00:00 21.6 C 10.62 g/m*3 21.6 C 22.5 km/h
170 26-08-2020 14:05:00 21.5 C 10.56 g/m*3 21.5 C 22.5 km/h
171 26-08-2020 14:10:00 21.4 C 10.69 g/m*3 21.4 C 17.7 km/h
172 26-08-2020 14:15:00 21.5 C 10.56 g/m*3 21.5 C 20.9 km/h
173 26-08-2020 14:20:00 21.6 C 10.62 g/m*3 21.6 C 20.9 km/h
174 26-08-2020 14:25:00 21.6 C 10.24 g/m*3 21.6 C 22.5 km/h
175 26-08-2020 14:30:00 21.7 C 10.49 g/m*3 21.7 C 17.7 km/h
Sensor: Nr:Datum:Temp:Abs-Feuchte:Windchill:Wind:
Aussen-T/F 176 26-08-2020 14:35:00 21.8 C 10.74 g/m*3 21.8 C 19.3 km/h
177 26-08-2020 14:40:00 21.9 C 10.42 g/m*3 21.9 C 20.9 km/h
178 26-08-2020 14:45:00 21.9 C 10.42 g/m*3 21.9 C 14.5 km/h
179 26-08-2020 14:50:00 21.8 C 10.55 g/m*3 21.8 C 16.1 km/h
180 26-08-2020 14:55:00 21.8 C 10.17 g/m*3 21.8 C 37 km/h
181 26-08-2020 15:00:00 21.8 C 10.17 g/m*3 21.8 C 20.9 km/h
182 26-08-2020 15:05:00 21.9 C 10.23 g/m*3 21.9 C 22.5 km/h
183 26-08-2020 15:10:00 22.1 C 10.54 g/m*3 22.1 C 19.3 km/h
184 26-08-2020 15:15:00 22.2 C 10.41 g/m*3 22.2 C 20.9 km/h
185 26-08-2020 15:20:00 22.1 C 10.35 g/m*3 22.1 C 19.3 km/h
186 26-08-2020 15:25:00 22.2 C 10.41 g/m*3 22.2 C 22.5 km/h
187 26-08-2020 15:30:00 22.5 C 10.39 g/m*3 22.5 C 24.1 km/h
188 26-08-2020 15:35:00 22.7 C 10.3 g/m*3 22.7 C 22.5 km/h
189 26-08-2020 15:40:00 22.8 C 10.57 g/m*3 22.8 C 22.5 km/h
190 26-08-2020 15:45:00 23.2 C 10.6 g/m*3 23.2 C 20.9 km/h
191 26-08-2020 15:50:00 23.2 C 10.39 g/m*3 23.2 C 16.1 km/h
192 26-08-2020 15:55:00 23.2 C 10.19 g/m*3 23.2 C 22.5 km/h
193 26-08-2020 16:00:00 23 C 10.28 g/m*3 23 C 19.3 km/h
194 26-08-2020 16:05:00 22.8 C 10.36 g/m*3 22.8 C 19.3 km/h
195 26-08-2020 16:10:00 22.8 C 10.16 g/m*3 22.8 C 33.8 km/h
196 26-08-2020 16:15:00 22.8 C 10.16 g/m*3 22.8 C 33.8 km/h
197 26-08-2020 16:20:00 22.9 C 10.22 g/m*3 22.9 C 29 km/h
198 26-08-2020 16:25:00 22.8 C 10.16 g/m*3 22.8 C 35.4 km/h
199 26-08-2020 16:30:00 22.7 C 10.3 g/m*3 22.7 C 30.6 km/h
200 26-08-2020 16:35:00 23 C 10.28 g/m*3 23 C 29 km/h
Sensor: Nr:Datum:Temp:Abs-Feuchte:Windchill:Wind:
Aussen-T/F 201 26-08-2020 16:40:00 23.4 C 10.09 g/m*3 23.4 C 24.1 km/h
202 26-08-2020 16:45:00 23.3 C 10.25 g/m*3 23.3 C 27.4 km/h
203 26-08-2020 16:50:00 23.1 C 10.13 g/m*3 23.1 C 24.1 km/h
204 26-08-2020 16:55:00 22.9 C 10.42 g/m*3 22.9 C 17.7 km/h
205 26-08-2020 17:00:00 22.8 C 10.36 g/m*3 22.8 C 16.1 km/h
206 26-08-2020 17:05:00 22.8 C 10.36 g/m*3 22.8 C 20.9 km/h
207 26-08-2020 17:10:00 22.8 C 10.16 g/m*3 22.8 C 19.3 km/h
208 26-08-2020 17:15:00 22.8 C 10.36 g/m*3 22.8 C 17.7 km/h
209 26-08-2020 17:20:00 22.7 C 10.1 g/m*3 22.7 C 24.1 km/h
210 26-08-2020 17:25:00 22.7 C 10.1 g/m*3 22.7 C 22.5 km/h
211 26-08-2020 17:30:00 22.7 C 10.3 g/m*3 22.7 C 20.9 km/h
212 26-08-2020 17:35:00 22.7 C 10.1 g/m*3 22.7 C 17.7 km/h
213 26-08-2020 17:40:00 22.7 C 10.1 g/m*3 22.7 C 19.3 km/h
214 26-08-2020 17:45:00 22.6 C 10.04 g/m*3 22.6 C 25.7 km/h
215 26-08-2020 17:50:00 22.6 C 10.04 g/m*3 22.6 C 19.3 km/h
216 26-08-2020 17:55:00 22.6 C 10.25 g/m*3 22.6 C 19.3 km/h
217 26-08-2020 18:00:00 22.6 C 10.25 g/m*3 22.6 C 19.3 km/h
218 26-08-2020 18:05:00 22.5 C 10.19 g/m*3 22.5 C 19.3 km/h
219 26-08-2020 18:10:00 22.6 C 10.25 g/m*3 22.6 C 19.3 km/h
220 26-08-2020 18:15:00 22.6 C 10.25 g/m*3 22.6 C 19.3 km/h
221 26-08-2020 18:20:00 22.5 C 9.99 g/m*3 22.5 C 25.7 km/h
222 26-08-2020 18:25:00 22.4 C 10.13 g/m*3 22.4 C 20.9 km/h
223 26-08-2020 18:30:00 22.3 C 10.27 g/m*3 22.3 C 16.1 km/h
224 26-08-2020 18:35:00 22.3 C 10.27 g/m*3 22.3 C 19.3 km/h
225 26-08-2020 18:40:00 22.2 C 10.21 g/m*3 22.2 C 19.3 km/h
Sensor: Nr:Datum:Temp:Abs-Feuchte:Windchill:Wind:
Aussen-T/F 226 26-08-2020 18:45:00 22.1 C 10.15 g/m*3 22.1 C 19.3 km/h
227 26-08-2020 18:50:00 22.1 C 10.15 g/m*3 22.1 C 19.3 km/h
228 26-08-2020 18:55:00 22 C 10.09 g/m*3 22 C 16.1 km/h
229 26-08-2020 19:00:00 21.9 C 10.23 g/m*3 21.9 C 17.7 km/h
230 26-08-2020 19:05:00 21.9 C 10.23 g/m*3 21.9 C 16.1 km/h
231 26-08-2020 19:10:00 21.8 C 10.17 g/m*3 21.8 C 16.1 km/h
232 26-08-2020 19:15:00 21.7 C 10.3 g/m*3 21.7 C 14.5 km/h
233 26-08-2020 19:20:00 21.6 C 10.24 g/m*3 21.6 C 17.7 km/h
234 26-08-2020 19:25:00 21.6 C 10.43 g/m*3 21.6 C 12.9 km/h
235 26-08-2020 19:30:00 21.5 C 10.37 g/m*3 21.5 C 16.1 km/h
236 26-08-2020 19:35:00 21.4 C 10.31 g/m*3 21.4 C 12.9 km/h
237 26-08-2020 19:40:00 21.3 C 10.44 g/m*3 21.3 C 11.3 km/h
238 26-08-2020 19:45:00 21.3 C 10.44 g/m*3 21.3 C 14.5 km/h
239 26-08-2020 19:50:00 21.2 C 10.56 g/m*3 21.2 C 12.9 km/h
240 26-08-2020 19:55:00 21.1 C 10.5 g/m*3 21.1 C 14.5 km/h
241 26-08-2020 20:00:00 21 C 10.62 g/m*3 21 C 14.5 km/h
242 26-08-2020 20:05:00 20.9 C 10.56 g/m*3 20.9 C 19.3 km/h
243 26-08-2020 20:10:00 20.8 C 10.5 g/m*3 20.8 C 19.3 km/h
244 26-08-2020 20:15:00 20.8 C 10.68 g/m*3 20.8 C 22.5 km/h
245 26-08-2020 20:20:00 20.7 C 10.62 g/m*3 20.7 C 17.7 km/h
246 26-08-2020 20:25:00 20.7 C 10.8 g/m*3 20.7 C 11.3 km/h
247 26-08-2020 20:30:00 20.6 C 10.74 g/m*3 20.6 C 9.7 km/h
248 26-08-2020 20:35:00 20.6 C 10.74 g/m*3 20.6 C 12.9 km/h
249 26-08-2020 20:40:00 20.4 C 10.61 g/m*3 20.4 C 11.3 km/h
250 26-08-2020 20:45:00 20.3 C 10.55 g/m*3 20.3 C 19.3 km/h
Sensor: Nr:Datum:Temp:Abs-Feuchte:Windchill:Wind:
Aussen-T/F 251 26-08-2020 20:50:00 20.3 C 10.73 g/m*3 20.3 C 17.7 km/h
252 26-08-2020 20:55:00 20.2 C 10.67 g/m*3 20.2 C 16.1 km/h
253 26-08-2020 21:00:00 20.2 C 10.84 g/m*3 20.2 C 12.9 km/h
254 26-08-2020 21:05:00 20.1 C 10.78 g/m*3 20.1 C 22.5 km/h
255 26-08-2020 21:10:00 20 C 10.54 g/m*3 20 C 11.3 km/h
256 26-08-2020 21:15:00 19.9 C 10.48 g/m*3 19.9 C 16.1 km/h
257 26-08-2020 21:20:00 19.9 C 10.48 g/m*3 19.9 C 12.9 km/h
258 26-08-2020 21:25:00 19.9 C 10.48 g/m*3 19.9 C 16.1 km/h
259 26-08-2020 21:30:00 19.9 C 10.48 g/m*3 19.9 C 17.7 km/h
260 26-08-2020 21:35:00 19.9 C 10.48 g/m*3 19.9 C 14.5 km/h
261 26-08-2020 21:40:00 19.9 C 10.65 g/m*3 19.9 C 9.7 km/h
262 26-08-2020 21:45:00 19.9 C 10.65 g/m*3 19.9 C 8.1 km/h
263 26-08-2020 21:50:00 19.8 C 10.59 g/m*3 19.8 C 12.9 km/h
264 26-08-2020 21:55:00 19.8 C 10.59 g/m*3 19.8 C 11.3 km/h
265 26-08-2020 22:00:00 19.7 C 10.53 g/m*3 19.7 C 11.3 km/h
266 26-08-2020 22:05:00 19.7 C 10.53 g/m*3 19.7 C 11.3 km/h
267 26-08-2020 22:10:00 19.6 C 10.47 g/m*3 19.6 C 11.3 km/h
268 26-08-2020 22:15:00 19.6 C 10.64 g/m*3 19.6 C 8.1 km/h
269 26-08-2020 22:20:00 19.6 C 10.64 g/m*3 19.6 C 0 km/h
270 26-08-2020 22:25:00 19.4 C 10.51 g/m*3 19.4 C 4.8 km/h
271 26-08-2020 22:30:00 19.3 C 10.45 g/m*3 19.3 C 12.9 km/h
272 26-08-2020 22:35:00 19.3 C 10.62 g/m*3 19.3 C 6.4 km/h
273 26-08-2020 22:40:00 19.3 C 10.62 g/m*3 19.3 C 4.8 km/h
274 26-08-2020 22:45:00 19.2 C 10.55 g/m*3 19.2 C 1.6 km/h
275 26-08-2020 22:50:00 19.2 C 10.72 g/m*3 19.2 C 8.1 km/h
Sensor: Nr:Datum:Temp:Abs-Feuchte:Windchill:Wind:
Aussen-T/F 276 26-08-2020 22:55:00 19.1 C 10.66 g/m*3 19.1 C 3.2 km/h
277 26-08-2020 23:00:00 19 C 10.59 g/m*3 19 C 4.8 km/h
278 26-08-2020 23:05:00 18.9 C 10.53 g/m*3 18.9 C 3.2 km/h
279 26-08-2020 23:10:00 18.9 C 10.69 g/m*3 18.9 C 0 km/h
280 26-08-2020 23:15:00 18.9 C 10.69 g/m*3 18.9 C 6.4 km/h
281 26-08-2020 23:20:00 18.8 C 10.79 g/m*3 18.8 C 0 km/h
282 26-08-2020 23:25:00 18.8 C 10.79 g/m*3 18.8 C 1.6 km/h
283 26-08-2020 23:30:00 18.7 C 10.73 g/m*3 18.7 C 0 km/h
284 26-08-2020 23:35:00 18.6 C 10.66 g/m*3 18.6 C 3.2 km/h
285 26-08-2020 23:40:00 18.6 C 10.82 g/m*3 18.6 C 3.2 km/h
286 26-08-2020 23:45:00 18.4 C 10.54 g/m*3 18.4 C 3.2 km/h
287 26-08-2020 23:50:00 18.4 C 10.7 g/m*3 18.4 C 0 km/h
288 26-08-2020 23:55:00 18.3 C 10.63 g/m*3 18.3 C 3.2 km/h
289 27-08-2020 00:00:00 18.3 C 10.63 g/m*3 18.3 C 6.4 km/h
290 27-08-2020 00:05:00 18.3 C 10.79 g/m*3 18.3 C 4.8 km/h
291 27-08-2020 00:10:00 18.3 C 10.79 g/m*3 18.3 C 4.8 km/h
292 27-08-2020 00:15:00 18.2 C 10.57 g/m*3 18.2 C 6.4 km/h
293 27-08-2020 00:20:00 18.2 C 10.72 g/m*3 18.2 C 3.2 km/h
294 27-08-2020 00:25:00 18.1 C 10.66 g/m*3 18.1 C 9.7 km/h
295 27-08-2020 00:30:00 18.1 C 10.66 g/m*3 18.1 C 9.7 km/h
296 27-08-2020 00:35:00 18 C 10.75 g/m*3 18 C 1.6 km/h
297 27-08-2020 00:40:00 17.9 C 10.69 g/m*3 17.9 C 1.6 km/h
298 27-08-2020 00:45:00 17.8 C 10.62 g/m*3 17.8 C 3.2 km/h
299 27-08-2020 00:50:00 17.8 C 10.78 g/m*3 17.8 C 0 km/h
300 27-08-2020 00:55:00 17.7 C 10.71 g/m*3 17.7 C 4.8 km/h
Sensor: Nr:Datum:Temp:Abs-Feuchte:Windchill:Wind:
Aussen-T/F 301 27-08-2020 01:00:00 17.7 C 10.71 g/m*3 17.7 C 4.8 km/h
302 27-08-2020 01:05:00 17.7 C 10.71 g/m*3 17.7 C 4.8 km/h
303 27-08-2020 01:10:00 17.7 C 10.86 g/m*3 17.7 C 4.8 km/h
304 27-08-2020 01:15:00 17.6 C 10.8 g/m*3 17.6 C 1.6 km/h
305 27-08-2020 01:20:00 17.6 C 10.8 g/m*3 17.6 C 1.6 km/h
306 27-08-2020 01:25:00 17.5 C 10.73 g/m*3 17.5 C 0 km/h
307 27-08-2020 01:30:00 17.4 C 10.82 g/m*3 17.4 C 1.6 km/h
308 27-08-2020 01:35:00 17.2 C 10.69 g/m*3 17.2 C 1.6 km/h
309 27-08-2020 01:40:00 17.1 C 10.63 g/m*3 17.1 C 0 km/h
310 27-08-2020 01:45:00 16.9 C 10.64 g/m*3 16.9 C 1.6 km/h
311 27-08-2020 01:50:00 16.8 C 10.72 g/m*3 16.8 C 3.2 km/h
312 27-08-2020 01:55:00 16.6 C 10.74 g/m*3 16.6 C 3.2 km/h
313 27-08-2020 02:00:00 16.4 C 10.61 g/m*3 16.4 C 0 km/h
314 27-08-2020 02:05:00 16.3 C 10.68 g/m*3 16.3 C 1.6 km/h
315 27-08-2020 02:10:00 16.2 C 10.76 g/m*3 16.2 C 0 km/h
316 27-08-2020 02:15:00 16.1 C 10.69 g/m*3 16.1 C 0 km/h
317 27-08-2020 02:20:00 16.1 C 10.83 g/m*3 16.1 C 0 km/h
318 27-08-2020 02:25:00 16.1 C 10.83 g/m*3 16.1 C 1.6 km/h
319 27-08-2020 02:30:00 16.1 C 10.83 g/m*3 16.1 C 3.2 km/h
320 27-08-2020 02:35:00 16.1 C 10.83 g/m*3 16.1 C 4.8 km/h
321 27-08-2020 02:40:00 16.1 C 10.83 g/m*3 16.1 C 4.8 km/h
322 27-08-2020 02:45:00 16.2 C 10.89 g/m*3 16.2 C 6.4 km/h
323 27-08-2020 02:50:00 16.2 C 10.89 g/m*3 16.2 C 3.2 km/h
324 27-08-2020 02:55:00 16.2 C 10.89 g/m*3 16.2 C 3.2 km/h
325 27-08-2020 03:00:00 16.2 C 10.76 g/m*3 16.2 C 1.6 km/h
Sensor: Nr:Datum:Temp:Abs-Feuchte:Windchill:Wind:
Aussen-T/F 326 27-08-2020 03:05:00 16.1 C 10.83 g/m*3 16.1 C 4.8 km/h
327 27-08-2020 03:10:00 16 C 10.76 g/m*3 16 C 1.6 km/h
328 27-08-2020 03:15:00 15.9 C 10.7 g/m*3 15.9 C 1.6 km/h
329 27-08-2020 03:20:00 15.7 C 10.57 g/m*3 15.7 C 4.8 km/h
330 27-08-2020 03:25:00 15.6 C 10.64 g/m*3 15.6 C 0 km/h
331 27-08-2020 03:30:00 15.4 C 10.51 g/m*3 15.4 C 3.2 km/h
332 27-08-2020 03:35:00 15.3 C 10.58 g/m*3 15.3 C 1.6 km/h
333 27-08-2020 03:40:00 15.2 C 10.51 g/m*3 15.2 C 0 km/h
334 27-08-2020 03:45:00 15 C 10.51 g/m*3 15 C 0 km/h
335 27-08-2020 03:50:00 14.8 C 10.39 g/m*3 14.8 C 0 km/h
336 27-08-2020 03:55:00 14.7 C 10.32 g/m*3 14.7 C 0 km/h
337 27-08-2020 04:00:00 14.6 C 10.39 g/m*3 14.6 C 1.6 km/h
338 27-08-2020 04:05:00 14.4 C 10.38 g/m*3 14.4 C 3.2 km/h
339 27-08-2020 04:10:00 14.3 C 10.32 g/m*3 14.3 C 1.6 km/h
340 27-08-2020 04:15:00 14.3 C 10.32 g/m*3 14.3 C 0 km/h
341 27-08-2020 04:20:00 14.2 C 10.38 g/m*3 14.2 C 1.6 km/h
342 27-08-2020 04:25:00 14.1 C 10.32 g/m*3 14.1 C 3.2 km/h
343 27-08-2020 04:30:00 13.9 C 10.31 g/m*3 13.9 C 1.6 km/h
344 27-08-2020 04:35:00 13.9 C 10.31 g/m*3 13.9 C 0 km/h
345 27-08-2020 04:40:00 13.8 C 10.37 g/m*3 13.8 C 1.6 km/h
346 27-08-2020 04:45:00 13.8 C 10.37 g/m*3 13.8 C 0 km/h
347 27-08-2020 04:50:00 13.7 C 10.3 g/m*3 13.7 C 1.6 km/h
348 27-08-2020 04:55:00 13.7 C 10.3 g/m*3 13.7 C 0 km/h
349 27-08-2020 05:00:00 13.6 C 10.24 g/m*3 13.6 C 0 km/h
350 27-08-2020 05:05:00 13.6 C 10.24 g/m*3 13.6 C 0 km/h
Sensor: Nr:Datum:Temp:Abs-Feuchte:Windchill:Wind:
Aussen-T/F 351 27-08-2020 05:10:00 13.4 C 10.11 g/m*3 13.4 C 0 km/h
352 27-08-2020 05:15:00 13.3 C 10.17 g/m*3 13.3 C 0 km/h
353 27-08-2020 05:20:00 13.2 C 10.1 g/m*3 13.2 C 0 km/h
354 27-08-2020 05:25:00 13.2 C 10.1 g/m*3 13.2 C 0 km/h
355 27-08-2020 05:30:00 13.1 C 10.16 g/m*3 13.1 C 0 km/h
356 27-08-2020 05:35:00 13.1 C 10.16 g/m*3 13.1 C 0 km/h
357 27-08-2020 05:40:00 13.1 C 10.16 g/m*3 13.1 C 0 km/h
358 27-08-2020 05:45:00 13.1 C 10.27 g/m*3 13.1 C 0 km/h
359 27-08-2020 05:50:00 13.1 C 10.16 g/m*3 13.1 C 0 km/h
360 27-08-2020 05:55:00 13 C 10.09 g/m*3 13 C 0 km/h
361 27-08-2020 06:00:00 12.9 C 10.03 g/m*3 12.9 C 0 km/h
362 27-08-2020 06:05:00 12.9 C 10.14 g/m*3 12.9 C 0 km/h
363 27-08-2020 06:10:00 12.8 C 10.08 g/m*3 12.8 C 0 km/h
364 27-08-2020 06:15:00 12.8 C 10.08 g/m*3 12.8 C 0 km/h
365 27-08-2020 06:20:00 12.8 C 10.08 g/m*3 12.8 C 0 km/h
366 27-08-2020 06:25:00 12.8 C 10.08 g/m*3 12.8 C 0 km/h
367 27-08-2020 06:30:00 12.8 C 10.08 g/m*3 12.8 C 1.6 km/h
368 27-08-2020 06:35:00 12.8 C 10.19 g/m*3 12.8 C 1.6 km/h
369 27-08-2020 06:40:00 12.8 C 10.19 g/m*3 12.8 C 4.8 km/h
370 27-08-2020 06:45:00 12.8 C 10.19 g/m*3 12.8 C 1.6 km/h
371 27-08-2020 06:50:00 12.8 C 10.19 g/m*3 12.8 C 1.6 km/h
372 27-08-2020 06:55:00 12.7 C 10.02 g/m*3 12.7 C 0 km/h
373 27-08-2020 07:00:00 12.7 C 10.02 g/m*3 12.7 C 1.6 km/h
374 27-08-2020 07:05:00 12.6 C 10.07 g/m*3 12.6 C 3.2 km/h
375 27-08-2020 07:10:00 12.6 C 10.07 g/m*3 12.6 C 3.2 km/h
Sensor: Nr:Datum:Temp:Abs-Feuchte:Windchill:Wind:
Aussen-T/F 376 27-08-2020 07:15:00 12.6 C 10.07 g/m*3 12.6 C 1.6 km/h
377 27-08-2020 07:20:00 12.7 C 10.24 g/m*3 12.7 C 4.8 km/h
378 27-08-2020 07:25:00 12.7 C 10.24 g/m*3 12.7 C 9.7 km/h
379 27-08-2020 07:30:00 12.8 C 10.19 g/m*3 12.8 C 4.8 km/h
380 27-08-2020 07:35:00 12.8 C 10.19 g/m*3 12.8 C 4.8 km/h
381 27-08-2020 07:40:00 12.9 C 10.26 g/m*3 12.9 C 1.6 km/h
382 27-08-2020 07:45:00 12.9 C 10.26 g/m*3 12.9 C 4.8 km/h
383 27-08-2020 07:50:00 12.9 C 10.26 g/m*3 12.9 C 3.2 km/h
384 27-08-2020 07:55:00 13 C 10.32 g/m*3 13 C 1.6 km/h
385 27-08-2020 08:00:00 13 C 10.32 g/m*3 13 C 0 km/h
386 27-08-2020 08:05:00 13.1 C 10.38 g/m*3 13.1 C 0 km/h
387 27-08-2020 08:10:00 13.1 C 10.38 g/m*3 13.1 C 1.6 km/h
388 27-08-2020 08:15:00 13.2 C 10.45 g/m*3 13.2 C 1.6 km/h
389 27-08-2020 08:20:00 13.2 C 10.45 g/m*3 13.2 C 3.2 km/h
390 27-08-2020 08:25:00 13.4 C 10.58 g/m*3 13.4 C 8.1 km/h
391 27-08-2020 08:30:00 13.7 C 10.66 g/m*3 13.7 C 8.1 km/h
392 27-08-2020 08:35:00 13.9 C 10.55 g/m*3 13.9 C 9.7 km/h
393 27-08-2020 08:40:00 14.1 C 10.68 g/m*3 14.1 C 1.6 km/h
394 27-08-2020 08:45:00 14.3 C 10.81 g/m*3 14.3 C 4.8 km/h
395 27-08-2020 08:50:00 14.5 C 10.82 g/m*3 14.5 C 6.4 km/h
396 27-08-2020 08:55:00 14.8 C 10.89 g/m*3 14.8 C 8.1 km/h
397 27-08-2020 09:00:00 14.9 C 10.83 g/m*3 14.9 C 8.1 km/h
398 27-08-2020 09:05:00 15.2 C 11.03 g/m*3 15.2 C 8.1 km/h
399 27-08-2020 09:10:00 15.4 C 11.04 g/m*3 15.4 C 8.1 km/h
400 27-08-2020 09:15:00 15.6 C 11.04 g/m*3 15.6 C 9.7 km/h
Sensor: Nr:Datum:Temp:Abs-Feuchte:Windchill:Wind:
Aussen-T/F 401 27-08-2020 09:20:00 15.8 C 11.04 g/m*3 15.8 C 9.7 km/h
402 27-08-2020 09:25:00 15.9 C 10.97 g/m*3 15.9 C 9.7 km/h
403 27-08-2020 09:30:00 16.1 C 11.1 g/m*3 16.1 C 8.1 km/h
404 27-08-2020 09:35:00 16.3 C 11.24 g/m*3 16.3 C 11.3 km/h
405 27-08-2020 09:40:00 16.4 C 11.17 g/m*3 16.4 C 9.7 km/h
406 27-08-2020 09:45:00 16.6 C 11.16 g/m*3 16.6 C 11.3 km/h
407 27-08-2020 09:50:00 16.7 C 11.23 g/m*3 16.7 C 11.3 km/h
408 27-08-2020 09:55:00 16.8 C 11.15 g/m*3 16.8 C 9.7 km/h
409 27-08-2020 10:00:00 16.8 C 11.15 g/m*3 16.8 C 9.7 km/h
410 27-08-2020 10:05:00 16.8 C 11.15 g/m*3 16.8 C 8.1 km/h
411 27-08-2020 10:10:00 16.7 C 11.23 g/m*3 16.7 C 8.1 km/h
412 27-08-2020 10:15:00 16.8 C 11.29 g/m*3 16.8 C 6.4 km/h
413 27-08-2020 10:20:00 16.8 C 11.29 g/m*3 16.8 C 6.4 km/h
414 27-08-2020 10:25:00 17 C 11.29 g/m*3 17 C 6.4 km/h
415 27-08-2020 10:30:00 17.2 C 11.28 g/m*3 17.2 C 8.1 km/h
416 27-08-2020 10:35:00 17.3 C 11.34 g/m*3 17.3 C 6.4 km/h
417 27-08-2020 10:40:00 17.4 C 11.41 g/m*3 17.4 C 4.8 km/h
418 27-08-2020 10:45:00 17.7 C 11.47 g/m*3 17.7 C 4.8 km/h
419 27-08-2020 10:50:00 17.9 C 11.45 g/m*3 17.9 C 4.8 km/h
420 27-08-2020 10:55:00 18.1 C 11.74 g/m*3 18.1 C 1.6 km/h
421 27-08-2020 11:00:00 18.3 C 11.57 g/m*3 18.3 C 3.2 km/h
422 27-08-2020 11:05:00 18.6 C 11.78 g/m*3 18.6 C 4.8 km/h
423 27-08-2020 11:10:00 18.7 C 11.37 g/m*3 18.7 C 8.1 km/h
424 27-08-2020 11:15:00 18.8 C 11.6 g/m*3 18.8 C 6.4 km/h
425 27-08-2020 11:20:00 18.9 C 11.5 g/m*3 18.9 C 8.1 km/h
Sensor: Nr:Datum:Temp:Abs-Feuchte:Windchill:Wind:
Aussen-T/F 426 27-08-2020 11:25:00 19 C 11.41 g/m*3 19 C 9.7 km/h
427 27-08-2020 11:30:00 19 C 11.41 g/m*3 19 C 9.7 km/h
428 27-08-2020 11:35:00 19 C 11.24 g/m*3 19 C 6.4 km/h
429 27-08-2020 11:40:00 19.1 C 11.47 g/m*3 19.1 C 6.4 km/h
430 27-08-2020 11:45:00 19.1 C 11.31 g/m*3 19.1 C 8.1 km/h
431 27-08-2020 11:50:00 19.1 C 11.31 g/m*3 19.1 C 6.4 km/h
432 27-08-2020 11:55:00 19.2 C 11.21 g/m*3 19.2 C 1.6 km/h
433 27-08-2020 12:00:00 19.3 C 11.28 g/m*3 19.3 C 9.7 km/h
434 27-08-2020 12:05:00 19.3 C 11.44 g/m*3 19.3 C 4.8 km/h
435 27-08-2020 12:10:00 19.4 C 11.18 g/m*3 19.4 C 6.4 km/h
436 27-08-2020 12:15:00 19.4 C 11.01 g/m*3 19.4 C 3.2 km/h
437 27-08-2020 12:20:00 19.4 C 11.01 g/m*3 19.4 C 1.6 km/h
438 27-08-2020 12:25:00 19.5 C 10.91 g/m*3 19.5 C 4.8 km/h
439 27-08-2020 12:30:00 19.5 C 10.91 g/m*3 19.5 C 6.4 km/h
440 27-08-2020 12:35:00 19.6 C 10.8 g/m*3 19.6 C 11.3 km/h
441 27-08-2020 12:40:00 19.5 C 10.91 g/m*3 19.5 C 4.8 km/h
442 27-08-2020 12:45:00 19.6 C 10.8 g/m*3 19.6 C 0 km/h
443 27-08-2020 12:50:00 19.7 C 11.04 g/m*3 19.7 C 6.4 km/h
444 27-08-2020 12:55:00 19.8 C 10.93 g/m*3 19.8 C 3.2 km/h
445 27-08-2020 13:00:00 19.8 C 11.1 g/m*3 19.8 C 3.2 km/h
446 27-08-2020 13:05:00 19.9 C 10.82 g/m*3 19.9 C 11.3 km/h
447 27-08-2020 13:10:00 20 C 10.89 g/m*3 20 C 8.1 km/h
448 27-08-2020 13:15:00 20.1 C 10.95 g/m*3 20.1 C 12.9 km/h
449 27-08-2020 13:20:00 20 C 10.71 g/m*3 20 C 6.4 km/h
450 27-08-2020 13:25:00 19.9 C 11 g/m*3 19.9 C 8.1 km/h
Sensor: Nr:Datum:Temp:Abs-Feuchte:Windchill:Wind:
Aussen-T/F 451 27-08-2020 13:30:00 20.1 C 10.78 g/m*3 20.1 C 16.1 km/h
452 27-08-2020 13:35:00 20.2 C 10.84 g/m*3 20.2 C 11.3 km/h
453 27-08-2020 13:40:00 20.3 C 10.73 g/m*3 20.3 C 11.3 km/h
454 27-08-2020 13:45:00 20.3 C 10.9 g/m*3 20.3 C 8.1 km/h
455 27-08-2020 13:50:00 20.4 C 10.79 g/m*3 20.4 C 8.1 km/h
456 27-08-2020 13:55:00 20.5 C 10.68 g/m*3 20.5 C 6.4 km/h
457 27-08-2020 14:00:00 20.7 C 10.98 g/m*3 20.7 C 12.9 km/h
458 27-08-2020 14:05:00 20.9 C 10.56 g/m*3 20.9 C 9.7 km/h
459 27-08-2020 14:10:00 21.2 C 10.75 g/m*3 21.2 C 8.1 km/h
460 27-08-2020 14:15:00 21.3 C 10.81 g/m*3 21.3 C 12.9 km/h
461 27-08-2020 14:20:00 21.3 C 10.62 g/m*3 21.3 C 4.8 km/h
462 27-08-2020 14:25:00 21.4 C 10.69 g/m*3 21.4 C 9.7 km/h
463 27-08-2020 14:30:00 21.6 C 10.81 g/m*3 21.6 C 8.1 km/h
464 27-08-2020 14:35:00 21.5 C 10.56 g/m*3 21.5 C 9.7 km/h
465 27-08-2020 14:40:00 21.5 C 10.56 g/m*3 21.5 C 4.8 km/h
466 27-08-2020 14:45:00 21.5 C 10.37 g/m*3 21.5 C 6.4 km/h
467 27-08-2020 14:50:00 21.4 C 10.5 g/m*3 21.4 C 0 km/h
468 27-08-2020 14:55:00 21.4 C 10.5 g/m*3 21.4 C 0 km/h
469 27-08-2020 15:00:00 21.7 C 10.68 g/m*3 21.7 C 9.7 km/h
470 27-08-2020 15:05:00 22.1 C 10.54 g/m*3 22.1 C 6.4 km/h
471 27-08-2020 15:10:00 22.3 C 10.27 g/m*3 22.3 C 11.3 km/h
472 27-08-2020 15:15:00 22.4 C 10.33 g/m*3 22.4 C 22.5 km/h
473 27-08-2020 15:20:00 22.6 C 10.04 g/m*3 22.6 C 11.3 km/h
474 27-08-2020 15:25:00 22.6 C 10.04 g/m*3 22.6 C 11.3 km/h
475 27-08-2020 15:30:00 22.6 C 10.25 g/m*3 22.6 C 8.1 km/h
Sensor: Nr:Datum:Temp:Abs-Feuchte:Windchill:Wind:
Aussen-T/F 476 27-08-2020 15:35:00 22.6 C 10.25 g/m*3 22.6 C 9.7 km/h
477 27-08-2020 15:40:00 22.8 C 10.36 g/m*3 22.8 C 9.7 km/h
478 27-08-2020 15:45:00 23 C 10.28 g/m*3 23 C 11.3 km/h
479 27-08-2020 15:50:00 23.1 C 10.13 g/m*3 23.1 C 14.5 km/h
480 27-08-2020 15:55:00 23.3 C 10.25 g/m*3 23.3 C 8.1 km/h
481 27-08-2020 16:00:00 23.5 C 10.15 g/m*3 23.5 C 8.1 km/h
482 27-08-2020 16:05:00 23.7 C 10.27 g/m*3 23.7 C 9.7 km/h
483 27-08-2020 16:10:00 24 C 10.01 g/m*3 24 C 12.9 km/h
484 27-08-2020 16:15:00 24.2 C 10.12 g/m*3 24.2 C 16.1 km/h
485 27-08-2020 16:20:00 24.2 C 10.34 g/m*3 24.2 C 9.7 km/h
486 27-08-2020 16:25:00 24.2 C 10.12 g/m*3 24.2 C 9.7 km/h
487 27-08-2020 16:30:00 24.3 C 10.18 g/m*3 24.3 C 4.8 km/h
488 27-08-2020 16:35:00 24.7 C 10.64 g/m*3 24.7 C 4.8 km/h
489 27-08-2020 16:40:00 25.1 C 10.19 g/m*3 25.1 C 9.7 km/h
490 27-08-2020 16:45:00 25.2 C 10.24 g/m*3 25.2 C 16.1 km/h
491 27-08-2020 16:50:00 25.3 C 10.3 g/m*3 25.3 C 11.3 km/h
492 27-08-2020 16:55:00 25.3 C 10.3 g/m*3 25.3 C 12.9 km/h
493 27-08-2020 17:00:00 25.4 C 10.12 g/m*3 25.4 C 11.3 km/h
494 27-08-2020 17:05:00 25.4 C 10.12 g/m*3 25.4 C 9.7 km/h
495 27-08-2020 17:10:00 25.4 C 10.12 g/m*3 25.4 C 11.3 km/h
496 27-08-2020 17:15:00 25.3 C 9.83 g/m*3 25.3 C 12.9 km/h
497 27-08-2020 17:20:00 25.4 C 10.12 g/m*3 25.4 C 8.1 km/h
498 27-08-2020 17:25:00 25.6 C 9.76 g/m*3 25.6 C 9.7 km/h
499 27-08-2020 17:30:00 25.5 C 9.94 g/m*3 25.5 C 14.5 km/h
500 27-08-2020 17:35:00 25.4 C 10.12 g/m*3 25.4 C 8.1 km/h
Sensor: Nr:Datum:Temp:Abs-Feuchte:Windchill:Wind:
Aussen-T/F 501 27-08-2020 17:40:00 25.7 C 9.82 g/m*3 25.7 C 9.7 km/h
502 27-08-2020 17:45:00 25.8 C 9.87 g/m*3 25.8 C 9.7 km/h
503 27-08-2020 17:50:00 25.7 C 9.82 g/m*3 25.7 C 12.9 km/h
504 27-08-2020 17:55:00 25.6 C 9.76 g/m*3 25.6 C 12.9 km/h
505 27-08-2020 18:00:00 25.7 C 9.82 g/m*3 25.7 C 9.7 km/h
506 27-08-2020 18:05:00 26 C 9.98 g/m*3 26 C 9.7 km/h
507 27-08-2020 18:10:00 26.1 C 9.55 g/m*3 26.1 C 11.3 km/h
508 27-08-2020 18:15:00 25.9 C 9.68 g/m*3 25.9 C 9.7 km/h
509 27-08-2020 18:20:00 26 C 9.49 g/m*3 26 C 9.7 km/h
510 27-08-2020 18:25:00 25.9 C 9.44 g/m*3 25.9 C 9.7 km/h
511 27-08-2020 18:30:00 25.8 C 9.63 g/m*3 25.8 C 6.4 km/h
512 27-08-2020 18:35:00 25.8 C 9.63 g/m*3 25.8 C 16.1 km/h
513 27-08-2020 18:40:00 25.8 C 9.63 g/m*3 25.8 C 4.8 km/h
514 27-08-2020 18:45:00 25.8 C 9.39 g/m*3 25.8 C 8.1 km/h
515 27-08-2020 18:50:00 25.7 C 9.58 g/m*3 25.7 C 9.7 km/h
516 27-08-2020 18:55:00 25.5 C 9.94 g/m*3 25.5 C 12.9 km/h
517 27-08-2020 19:00:00 25.5 C 9.71 g/m*3 25.5 C 8.1 km/h
518 27-08-2020 19:05:00 25.5 C 10.18 g/m*3 25.5 C 4.8 km/h
519 27-08-2020 19:10:00 25.4 C 9.65 g/m*3 25.4 C 4.8 km/h
520 27-08-2020 19:15:00 25.1 C 9.72 g/m*3 25.1 C 9.7 km/h
521 27-08-2020 19:20:00 24.8 C 9.79 g/m*3 24.8 C 6.4 km/h
522 27-08-2020 19:25:00 24.6 C 10.13 g/m*3 24.6 C 6.4 km/h
523 27-08-2020 19:30:00 24.3 C 11.06 g/m*3 24.3 C 0 km/h
524 27-08-2020 19:35:00 24.1 C 10.5 g/m*3 24.1 C 1.6 km/h
525 27-08-2020 19:40:00 23.8 C 10.97 g/m*3 23.8 C 3.2 km/h
Sensor: Nr:Datum:Temp:Abs-Feuchte:Windchill:Wind:
Aussen-T/F 526 27-08-2020 19:45:00 23.7 C 10.69 g/m*3 23.7 C 3.2 km/h
527 27-08-2020 19:50:00 23.4 C 10.72 g/m*3 23.4 C 0 km/h
528 27-08-2020 19:55:00 22.9 C 10.42 g/m*3 22.9 C 1.6 km/h
529 27-08-2020 20:00:00 22.4 C 10.53 g/m*3 22.4 C 0 km/h
530 27-08-2020 20:05:00 21.8 C 10.55 g/m*3 21.8 C 6.4 km/h
531 27-08-2020 20:10:00 21.2 C 10.38 g/m*3 21.2 C 4.8 km/h
532 27-08-2020 20:15:00 20.6 C 10.2 g/m*3 20.6 C 4.8 km/h
533 27-08-2020 20:20:00 20.2 C 10.14 g/m*3 20.2 C 6.4 km/h
534 27-08-2020 20:25:00 19.8 C 10.08 g/m*3 19.8 C 6.4 km/h
535 27-08-2020 20:30:00 19.4 C 10.18 g/m*3 19.4 C 3.2 km/h
536 27-08-2020 20:35:00 19.1 C 10.16 g/m*3 19.1 C 1.6 km/h
537 27-08-2020 20:40:00 18.8 C 9.99 g/m*3 18.8 C 0 km/h
538 27-08-2020 20:45:00 18.6 C 10.03 g/m*3 18.6 C 0 km/h
539 27-08-2020 20:50:00 18.3 C 9.85 g/m*3 18.3 C 6.4 km/h
540 27-08-2020 20:55:00 18.2 C 9.95 g/m*3 18.2 C 3.2 km/h
541 27-08-2020 21:00:00 18 C 9.98 g/m*3 18 C 4.8 km/h
542 27-08-2020 21:05:00 17.8 C 9.87 g/m*3 17.8 C 4.8 km/h
543 27-08-2020 21:10:00 17.7 C 9.96 g/m*3 17.7 C 0 km/h
544 27-08-2020 21:15:00 17.6 C 9.9 g/m*3 17.6 C 0 km/h
545 27-08-2020 21:20:00 17.5 C 9.84 g/m*3 17.5 C 0 km/h
546 27-08-2020 21:25:00 17.4 C 9.78 g/m*3 17.4 C 0 km/h
547 27-08-2020 21:30:00 17.3 C 9.87 g/m*3 17.3 C 4.8 km/h
548 27-08-2020 21:35:00 17.3 C 10.02 g/m*3 17.3 C 4.8 km/h
549 27-08-2020 21:40:00 17.3 C 9.87 g/m*3 17.3 C 6.4 km/h
550 27-08-2020 21:45:00 17.3 C 9.87 g/m*3 17.3 C 4.8 km/h
Sensor: Nr:Datum:Temp:Abs-Feuchte:Windchill:Wind:
Aussen-T/F 551 27-08-2020 21:50:00 17.3 C 9.87 g/m*3 17.3 C 0 km/h
552 27-08-2020 21:55:00 17.3 C 9.87 g/m*3 17.3 C 0 km/h
553 27-08-2020 22:00:00 17.3 C 9.87 g/m*3 17.3 C 0 km/h
554 27-08-2020 22:05:00 17.3 C 10.02 g/m*3 17.3 C 0 km/h
555 27-08-2020 22:10:00 17.3 C 10.16 g/m*3 17.3 C 0 km/h
556 27-08-2020 22:15:00 17.3 C 10.16 g/m*3 17.3 C 0 km/h
557 27-08-2020 22:20:00 17.3 C 10.16 g/m*3 17.3 C 0 km/h
558 27-08-2020 22:25:00 17.2 C 9.96 g/m*3 17.2 C 0 km/h
559 27-08-2020 22:30:00 17.2 C 10.1 g/m*3 17.2 C 0 km/h
560 27-08-2020 22:35:00 17.1 C 10.04 g/m*3 17.1 C 0 km/h
561 27-08-2020 22:40:00 17.1 C 10.04 g/m*3 17.1 C 0 km/h
562 27-08-2020 22:45:00 17.1 C 10.19 g/m*3 17.1 C 0 km/h
563 27-08-2020 22:50:00 17.1 C 10.19 g/m*3 17.1 C 0 km/h
564 27-08-2020 22:55:00 17.2 C 10.4 g/m*3 17.2 C 0 km/h
565 27-08-2020 23:00:00 17.3 C 10.46 g/m*3 17.3 C 0 km/h
566 27-08-2020 23:05:00 17.3 C 10.46 g/m*3 17.3 C 0 km/h
567 27-08-2020 23:10:00 17.5 C 10.88 g/m*3 17.5 C 0 km/h
568 27-08-2020 23:15:00 17.6 C 11.25 g/m*3 17.6 C 0 km/h
569 27-08-2020 23:20:00 17.6 C 11.4 g/m*3 17.6 C 0 km/h
570 27-08-2020 23:25:00 17.6 C 10.95 g/m*3 17.6 C 0 km/h
571 27-08-2020 23:30:00 17.6 C 11.55 g/m*3 17.6 C 0 km/h
572 27-08-2020 23:35:00 17.6 C 11.85 g/m*3 17.6 C 0 km/h
573 27-08-2020 23:40:00 17.5 C 11.93 g/m*3 17.5 C 0 km/h
574 27-08-2020 23:45:00 17.3 C 11.93 g/m*3 17.3 C 0 km/h
575 27-08-2020 23:50:00 17.1 C 11.94 g/m*3 17.1 C 8.1 km/h
Sensor: Nr:Datum:Temp:Abs-Feuchte:Windchill:Wind:
Aussen-T/F 576 27-08-2020 23:55:00 16.9 C 11.94 g/m*3 16.9 C 6.4 km/h

Legende:
   Min
   Max


Maximal/Minimal-Werte vom 14.04.2020 - 16.05.2020

Sensor Min Max Avg
Temp
(Aussen-T/F)
-0.1 °C
15-04-2020  06:55:00
26.2 °C
17-04-2020  18:05:00
11.98 °C

Die Daten stammen von einer Davis Vantage Pro 2 Wetter-Station und werden unter Linux mit der Software wview2wettercgi und aufbereitet. Alle Angaben erfolgen ohne Gewähr für ihre Vollständigkeit oder Richtigkeit.
Kontakt: Rainer Krienke krienke@uni-koblenz.de . Meine Webseiten an der Uni Koblenz oder privat.
Version: $Revision: 0.78 $